Pagrindinis puslapis
METAR-TAF:

METAR-TAF

Oro uostai :

Mehongsonas, Tailandas

platuma: 19-18N, ilguma: 097-50E, Aukštis: 267 m

Dabartinis oras

Ataskaita buvo paskelbta 7 valandos ir 47 minutes, ne 12:00 UTC
Vėjas 4 kt iš Rytų
Temperatūra 28°C
Drėgmė 84%
Slėgis 1008 hPa
Matomumas 10 km arba daugiau
Mažai debesys ne aukštis 2500 ft

METAR: VTCH 221200Z 10004KT 9999 FEW025 28/25 Q1008 NOSIG

Laikas: 02:47 (19:47 UTC)

Prognozė

Ataskaita buvo paskelbta 2 valandos ir 47 minutes, ne 17:00 UTC
Prognozė galioja nuo 22 metu 18 UTC su 23 metu 18 UTC
Vėjas 5 kt iš Vakarų/Pietvakarių
Matomumas 10 km arba daugiau
Išsisklaidę debesys ne aukštis 2500 ft
Laikinai
nuo 23 metu 08 UTC su 23 metu 12 UTC
Vėjas 15 kt iš Vakarų/Pietvakarių
Matomumas: 4000 m
Mažai debesys ne aukštis 1800 ft, Liūtiniai kamuoliniai debesys.
Su prošvaistėmis ne aukštis 2500 ft
perkūnija, lietus

TAF: VTCH 221700Z 2218/2318 24005KT 9999 SCT025 TEMPO 2308/2312 24015KT 4000 TSRA FEW018CB BKN025

Orai ataskaitas ir orų prognozės (METAR, TAF).

turimą stotys yra geltonos ir raudonos taškus žemėlapyje.

Perkelti pele per norėdami pamatyti stoties vardą.

Tada spustelėkite, norėdami matyti oro stebėjimo ir prognozės.

Norėdami pakeisti žemėlapį: spustelėkite ant žalios mygtukų su juodo kryžiaus žemyn,; žalią mygtuką su brūkšneliu, jei norite nutolinti; arba žalių rodyklių gretimoms žemėlapius.


METAR-TAF: